Share

Aspermont, TX

WT_Meso Aspermont 3NE (MASST2) Elev 1740 ft | 33.17 °N, 100.20 °W | Change Station

Current weather conditions updated 55 minutes ago

Clear
Clear
64 °F
Feels Like 64 °F
N
3
Wind Variable Wind from South
Gusts 5.0 mph
Sunrise 7:04 AM
Sunset 8:15 PM
Moon Waning Gibbous

Today is forecast to be Much Warmer than yesterday.

Pressure 30.02 in
Visibility 10.0 miles
Clouds Clear
Dew Point 62 °F
Humidity 94%
Rainfall -999.00 in
Snow Depth Not available.
UV 0 out of 16
Pollen 7.50 out of 12
Air Quality Not available.
Flu Activity Local Activity
METAR KSWW 210755Z AUTO 18014KT 10SM CLR 18/18 A3002 RMK AO2 T01750175

More Conditions Fewer Conditions

Pressure 30.02 in
Visibility 10.0 miles
Clouds Clear
Dew Point 62 °F
Humidity 94%
Rainfall -999.00 in
Snow Depth Not available.
UV 0 out of 16
Pollen 7.50 out of 12
Air Quality Not available.
Flu Activity Local Activity
METAR KSWW 210755Z AUTO 18014KT 10SM CLR 18/18 A3002 RMK AO2 T01750175

More Conditions Fewer Conditions

10-Day Weather Forecast

Almanac

Astronomy

Apr. 21, 2014 Rise Set
Actual Time 7:04 AM CDT 8:15 PM CDT
Civil Twilight 6:38 AM CDT 8:41 PM CDT
Nautical Twilight 6:07 AM CDT 9:12 PM CDT
Astronomical Twilight 5:35 AM CDT 9:44 PM CDT
Moon 1:43 AM CDT 12:36 PM CDT
Length of Visible Light 14h 03m
Length of Day
13h 11m
Tomorrow will be 1m 53s longer.
Waning Gibbous, 61% of the Moon is Illuminated
Today
Waning Gibbous
Apr 22
Last Quarter
Apr 29
New
May 6
First Quarter
May 14
Full

Today's Extremes

State Highs State Lows

Community

  • Snowy Robin
    Snowy Robin
  • Sun Pillar and Geese
    Sun Pillar and Geese
  • Showers on the Way
    Showers on the Way
  • Easter Morning Fog
    Easter Morning Fog
  • Easter Dance
    Easter Dance

WunderPhotos

Upload Photos

1,703,572 photos uploaded!

WunderBlogs® & News

Nearby

Snow Depth

Station Depth Elevation
No new snow has been reported.

Coastal Water Temperatures

Place Temperature
No Stations Reporting

Earthquake Activity

City Distance Mag. Time & Date
No recent earthquake activity has been reported nearby.
Minimum magnitude displayed is 2.5.

Nearby Weather Stations

Station Location Temp. Dew Point Humidity Wind Precip. Elev Updated Type
WT_Meso Aspermont 3NE, Aspermont, TX 64 °F 62 °F 94% South  at  3 mph 0.00 in / hr 1740 ft 2:25 AM CDT MADIS
WT_Meso Jayton 1S, Girard, TX 61 °F 59 °F 94% South  at  8 mph 0.00 in / hr 2009 ft 2:25 AM CDT MADIS
Hamlin, TX 64.6 °F 60 °F 84% South  at  9.4 mph - / hr 1834 ft 3:09 AM CDT Normal

Show More Stations Show Fewer Stations

What do you think?

We're not finished. Please let us know what you like, what you don't like, and what you are still missing.